MMUN

Cancún International Airport

Cancún, Mexico
TAF MMUN 192300Z 2000/2106 20005KT 6SM HZ SCT015 BKN080 BKN300 TX30/2019Z TN26/2012Z TEMPO 2000/2004 5SM TSRA BKN015CB FM200400 13005KT 5SM -RA BKN015 OVC090 FM200900 13005KT P6SM SCT015 BKN090 BKN250 FM201800 13010KT P6SM SCT015 BKN250 TEMPO 2023/2103 BKN015 FM210300 09006KT P6SM SCT020 BKN250
Issued Valid From Valid To
Sep-19 @ 23:00 UTC
(3 hours ago)
Sep-20 @ 00:00 UTC
(2 hours ago)
Sep-21 @ 06:00 UTC
(-1 days ago)
Sep-20 @ 00:00 to Sep-20 @ 04:00
TAF MMUN 192300Z 2000/2106 20005KT 6SM HZ SCT015 BKN080 BKN300 TX30/2019Z TN26/2012Z
Wind Visibility Clouds Conditions
200° at 5 knots 6 miles
  • Scattered at 1,500' AGL
  • Broken at 8,000' AGL
  • Broken at 30,000' AGL
  • Haze
Temporary Sep-20 @ 00:00 to Sep-20 @ 04:00
TEMPO 2000/2004 5SM TSRA BKN015CB
Visibility Clouds Conditions
5 miles
  • Broken at 1,500' AGL
  • Thunderstorm
  • Rain
From Sep-20 @ 04:00 to Sep-20 @ 09:00
FM200400 13005KT 5SM -RA BKN015 OVC090
Wind Visibility Clouds Conditions
130° at 5 knots 5 miles
  • Broken at 1,500' AGL
  • Overcast at 9,000' AGL
  • Light Rain
From Sep-20 @ 09:00 to Sep-20 @ 18:00
FM200900 13005KT P6SM SCT015 BKN090 BKN250
Wind Visibility Clouds
130° at 5 knots Greater than 6 miles
  • Scattered at 1,500' AGL
  • Broken at 9,000' AGL
  • Broken at 25,000' AGL
From Sep-20 @ 18:00 to Sep-21 @ 03:00
FM201800 13010KT P6SM SCT015 BKN250
Wind Visibility Clouds
130° at 10 knots Greater than 6 miles
  • Scattered at 1,500' AGL
  • Broken at 25,000' AGL
Temporary Sep-20 @ 23:00 to Sep-21 @ 03:00
TEMPO 2023/2103 BKN015
Clouds
  • Broken at 1,500' AGL
From Sep-21 @ 03:00 to Sep-21 @ 06:00
FM210300 09006KT P6SM SCT020 BKN250
Wind Visibility Clouds
90° at 6 knots Greater than 6 miles
  • Scattered at 2,000' AGL
  • Broken at 25,000' AGL
TAF MMUN 192300Z 2000/2106 20005KT 6SM HZ SCT015 BKN080 BKN300 TX30/2019Z TN26/2012Z TEMPO 2000/2004 5SM TSRA BKN015CB FM200400 13005KT 5SM -RA BKN015 OVC090 FM200900 13005KT P6SM SCT015 BKN090 BKN250 FM201800 13010KT P6SM SCT015 BKN250 TEMPO 2023/2103 BKN015 FM210300 09006KT P6SM SCT020 BKN250
Issued Sep-19 @ 23:00 UTC
(3 hours ago)
Valid From Sep-20 @ 00:00 UTC
(2 hours ago)
Valid To Sep-21 @ 06:00 UTC
(-1 days ago)
Sep-20 @ 00:00 - Sep-20 @ 04:00
Wind Visibility
200° at 5 knots 6 miles
Clouds
  • Scattered at 1,500' AGL
  • Broken at 8,000' AGL
  • Broken at 30,000' AGL
Conditions
  • Haze
Temporary Sep-20 @ 00:00 - Sep-20 @ 04:00
Clouds
  • Broken at 1,500' AGL
Conditions
  • Thunderstorm
  • Rain
From Sep-20 @ 04:00 - Sep-20 @ 09:00
Wind Visibility
130° at 5 knots 5 miles
Clouds
  • Broken at 1,500' AGL
  • Overcast at 9,000' AGL
Conditions
  • Light Rain
From Sep-20 @ 09:00 - Sep-20 @ 18:00
Wind Visibility
130° at 5 knots Greater than 6 miles
Clouds
  • Scattered at 1,500' AGL
  • Broken at 9,000' AGL
  • Broken at 25,000' AGL
From Sep-20 @ 18:00 - Sep-21 @ 03:00
Wind Visibility
130° at 10 knots Greater than 6 miles
Clouds
  • Scattered at 1,500' AGL
  • Broken at 25,000' AGL
Temporary Sep-20 @ 23:00 - Sep-21 @ 03:00
Clouds
  • Broken at 1,500' AGL
From Sep-21 @ 03:00 - Sep-21 @ 06:00
Wind Visibility
90° at 6 knots Greater than 6 miles
Clouds
  • Scattered at 2,000' AGL
  • Broken at 25,000' AGL